Time;durP1;ratioP1;P1;durP2;ratioP2;P2;SDS_P1;SDS_P2;PMS_P1;PMS_P2;Temp;Humidity;BMP_temperature;BMP_pressure;BME280_temperature;BME280_humidity;BME280_pressure;Samples;Min_cycle;Max_cycle;Signal;HPM_P1;HPM_P2
2021/05/27 00:02:20;;;;;;;9.93;3.72;;;;;16.70;101222.00;;;;5070107;28;20191;-80
2021/05/27 00:04:47;;;;;;;6.32;3.17;;;;;16.70;101218.00;;;;5072217;28;20252;-80
2021/05/27 00:07:15;;;;;;;9.13;3.08;;;;;16.60;101224.00;;;;5071436;28;20205;-78
2021/05/27 00:09:42;;;;;;;4.80;2.85;;;;;16.60;101228.00;;;;5071481;28;20273;-79
2021/05/27 00:12:09;;;;;;;5.97;2.78;;;;;16.60;101230.00;;;;5071070;28;20618;-80
2021/05/27 00:14:36;;;;;;;5.93;2.83;;;;;16.60;101241.00;;;;5082614;28;20279;-78
2021/05/27 00:17:03;;;;;;;7.95;3.10;;;;;16.60;101232.00;;;;5072369;28;20210;-80
2021/05/27 00:19:30;;;;;;;7.20;3.67;;;;;16.60;101229.00;;;;5071016;28;20253;-80
2021/05/27 00:21:57;;;;;;;5.35;3.05;;;;;16.60;101230.00;;;;5071955;28;20214;-80
2021/05/27 00:24:24;;;;;;;6.90;3.40;;;;;16.60;101229.00;;;;5077349;28;20365;-79
2021/05/27 00:26:50;;;;;;;8.55;3.20;;;;;16.60;101230.00;;;;5090290;28;20255;-80
2021/05/27 00:29:17;;;;;;;8.75;3.97;;;;;16.60;101236.00;;;;5073040;28;20202;-80
2021/05/27 00:31:44;;;;;;;5.32;3.20;;;;;16.50;101234.00;;;;5087220;28;21645;-79
2021/05/27 00:34:11;;;;;;;5.57;3.35;;;;;16.50;101228.00;;;;5083107;28;20221;-79
2021/05/27 00:36:38;;;;;;;7.15;3.17;;;;;16.50;101237.00;;;;5070482;28;20746;-80
2021/05/27 00:39:05;;;;;;;6.32;2.75;;;;;16.50;101234.00;;;;5070226;28;20201;-80
2021/05/27 00:41:32;;;;;;;7.30;3.28;;;;;16.50;101242.00;;;;5070906;28;20234;-79
2021/05/27 00:43:59;;;;;;;4.40;2.58;;;;;16.50;101238.00;;;;5071002;28;20574;-79
2021/05/27 00:46:25;;;;;;;5.07;2.75;;;;;16.50;101250.00;;;;5079123;28;20194;-79
2021/05/27 00:48:59;;;;;;;4.35;2.95;;;;;16.50;101245.00;;;;5089919;28;20205;-79
2021/05/27 00:51:27;;;;;;;9.27;3.30;;;;;16.50;101251.00;;;;5070950;28;20202;-79
2021/05/27 00:53:56;;;;;;;4.78;2.80;;;;;16.50;101252.00;;;;5070952;28;20206;-79
2021/05/27 00:56:23;;;;;;;9.00;3.15;;;;;16.50;101250.00;;;;5077526;28;20275;-78
2021/05/27 00:58:50;;;;;;;5.40;3.00;;;;;16.50;101257.00;;;;5086046;28;20195;-80
2021/05/27 01:01:17;;;;;;;4.55;2.90;;;;;16.50;101259.00;;;;5068894;28;20219;-80
2021/05/27 01:03:44;;;;;;;5.00;2.92;;;;;16.50;101261.00;;;;5071938;28;20202;-80
2021/05/27 01:06:11;;;;;;;5.47;2.60;;;;;16.40;101265.00;;;;5070730;28;20680;-80
2021/05/27 01:08:38;;;;;;;7.07;3.00;;;;;16.40;101260.00;;;;5069551;28;20676;-79
2021/05/27 01:11:06;;;;;;;7.93;3.20;;;;;16.40;101264.00;;;;5077316;28;20227;-80
2021/05/27 01:13:33;;;;;;;3.95;2.45;;;;;16.40;101263.00;;;;5074722;28;20297;-80
2021/05/27 01:16:00;;;;;;;4.75;2.78;;;;;16.40;101261.00;;;;5090350;28;20198;-80
2021/05/27 01:18:27;;;;;;;8.15;3.10;;;;;16.40;101270.00;;;;5068937;28;20288;-80
2021/05/27 01:20:56;;;;;;;7.88;3.75;;;;;16.40;101262.00;;;;5071732;28;20311;-79
2021/05/27 01:23:26;;;;;;;6.10;3.05;;;;;16.40;101268.00;;;;5075050;28;20186;-80
2021/05/27 01:25:55;;;;;;;7.25;3.03;;;;;16.40;101270.00;;;;5089007;28;20194;-79
2021/05/27 01:28:22;;;;;;;4.78;3.08;;;;;16.40;101270.00;;;;5089273;28;20244;-80
2021/05/27 01:30:50;;;;;;;5.53;2.67;;;;;16.30;101263.00;;;;5085370;28;20211;-80
2021/05/27 01:33:18;;;;;;;6.78;2.67;;;;;16.30;101277.00;;;;5069815;28;20576;-79
2021/05/27 01:35:45;;;;;;;7.72;3.33;;;;;16.30;101267.00;;;;5073246;28;20191;-80
2021/05/27 01:38:14;;;;;;;7.25;3.03;;;;;16.30;101279.00;;;;5072487;28;20585;-80
2021/05/27 01:40:42;;;;;;;4.68;2.97;;;;;16.30;101277.00;;;;5088701;28;20310;-80
2021/05/27 01:43:10;;;;;;;4.15;2.67;;;;;16.30;101269.00;;;;5088388;28;20680;-80
2021/05/27 01:45:37;;;;;;;5.72;3.13;;;;;16.30;101273.00;;;;5089883;28;20194;-80
2021/05/27 01:48:04;;;;;;;7.25;3.55;;;;;16.30;101277.00;;;;5090122;28;20208;-79
2021/05/27 01:50:31;;;;;;;9.35;3.90;;;;;16.30;101272.00;;;;5075464;28;20195;-80
2021/05/27 01:53:00;;;;;;;7.20;3.83;;;;;16.30;101273.00;;;;5068984;28;20552;-79
2021/05/27 01:55:27;;;;;;;4.75;2.85;;;;;16.30;101272.00;;;;5088614;28;20423;-80
2021/05/27 01:57:56;;;;;;;6.70;3.28;;;;;16.20;101280.00;;;;5084414;28;20755;-80
2021/05/27 02:00:23;;;;;;;6.38;3.00;;;;;16.30;101279.00;;;;5068471;28;20303;-80
2021/05/27 02:02:50;;;;;;;7.88;3.30;;;;;16.20;101279.00;;;;5074214;28;20649;-80
2021/05/27 02:05:17;;;;;;;5.22;3.17;;;;;16.20;101276.00;;;;5068324;28;20566;-80
2021/05/27 02:07:44;;;;;;;7.68;3.22;;;;;16.30;101282.00;;;;5084248;28;20199;-81
2021/05/27 02:10:11;;;;;;;6.55;3.40;;;;;16.20;101286.00;;;;5087512;28;20729;-80
2021/05/27 02:12:39;;;;;;;4.93;2.85;;;;;16.20;101287.00;;;;5076949;28;20574;-81
2021/05/27 02:15:09;;;;;;;6.85;2.88;;;;;16.20;101278.00;;;;5080887;28;20201;-80
2021/05/27 02:17:36;;;;;;;4.22;3.05;;;;;16.20;101289.00;;;;5080330;28;20203;-79
2021/05/27 02:20:05;;;;;;;11.18;4.10;;;;;16.20;101291.00;;;;5068386;28;20217;-80
2021/05/27 02:22:32;;;;;;;7.30;3.53;;;;;16.20;101295.00;;;;5068878;28;20198;-80
2021/05/27 02:24:58;;;;;;;5.00;3.10;;;;;16.20;101286.00;;;;5068352;28;20256;-80
2021/05/27 02:27:25;;;;;;;6.22;3.50;;;;;16.20;101290.00;;;;5067924;28;20198;-80
2021/05/27 02:29:52;;;;;;;8.77;3.55;;;;;16.20;101291.00;;;;5077125;28;20213;-80
2021/05/27 02:32:20;;;;;;;5.00;3.25;;;;;16.20;101296.00;;;;5071562;28;20202;-79
2021/05/27 02:34:46;;;;;;;7.65;3.05;;;;;16.20;101297.00;;;;5079605;28;20195;-79
2021/05/27 02:37:13;;;;;;;5.82;2.67;;;;;16.20;101297.00;;;;5067493;28;20679;-79
2021/05/27 02:39:40;;;;;;;6.03;3.45;;;;;16.20;101298.00;;;;5067782;28;20648;-80
2021/05/27 02:42:07;;;;;;;8.48;3.38;;;;;16.20;101302.00;;;;5068733;28;20214;-79
2021/05/27 02:44:34;;;;;;;5.68;3.03;;;;;16.10;101303.00;;;;5067959;28;20199;-80
2021/05/27 02:47:01;;;;;;;8.20;3.55;;;;;16.10;101304.00;;;;5068901;28;20198;-80
2021/05/27 02:49:28;;;;;;;4.82;2.63;;;;;16.10;101307.00;;;;5070631;28;20193;-79
2021/05/27 02:51:55;;;;;;;5.43;3.50;;;;;16.10;101310.00;;;;5072581;28;20657;-79
2021/05/27 02:54:22;;;;;;;7.38;3.20;;;;;16.10;101307.00;;;;5085271;28;20194;-80
2021/05/27 02:56:49;;;;;;;7.03;2.70;;;;;16.10;101308.00;;;;5087640;28;20789;-80
2021/05/27 02:59:15;;;;;;;4.70;3.10;;;;;16.10;101303.00;;;;5069500;28;20199;-79
2021/05/27 03:01:42;;;;;;;7.25;2.97;;;;;16.10;101310.00;;;;5068093;28;20229;-79
2021/05/27 03:04:09;;;;;;;5.53;2.78;;;;;16.10;101311.00;;;;5071012;28;20206;-80
2021/05/27 03:06:36;;;;;;;6.63;2.63;;;;;16.10;101306.00;;;;5084823;28;20202;-80
2021/05/27 03:09:03;;;;;;;4.32;2.53;;;;;16.10;101307.00;;;;5068009;28;20563;-80
2021/05/27 03:11:30;;;;;;;6.28;2.70;;;;;16.10;101306.00;;;;5071867;28;20203;-80
2021/05/27 03:13:57;;;;;;;4.45;2.53;;;;;16.10;101302.00;;;;5077215;28;20194;-79
2021/05/27 03:16:24;;;;;;;6.47;3.58;;;;;16.10;101313.00;;;;5086679;28;20567;-78
2021/05/27 03:18:51;;;;;;;5.68;2.85;;;;;16.10;101306.00;;;;5085671;28;20221;-79
2021/05/27 03:21:18;;;;;;;6.13;3.05;;;;;16.10;101311.00;;;;5079839;28;20225;-78
2021/05/27 03:23:45;;;;;;;5.00;2.70;;;;;16.10;101313.00;;;;5089157;28;20202;-79
2021/05/27 03:26:14;;;;;;;4.50;2.53;;;;;16.10;101308.00;;;;5090203;28;20190;-79
2021/05/27 03:28:41;;;;;;;3.63;2.65;;;;;16.10;101312.00;;;;5091736;28;20202;-78
2021/05/27 03:31:08;;;;;;;6.55;2.97;;;;;16.10;101310.00;;;;5090995;28;20218;-79
2021/05/27 03:33:35;;;;;;;5.97;3.00;;;;;16.10;101312.00;;;;5089093;28;20205;-78
2021/05/27 03:36:01;;;;;;;4.72;2.33;;;;;16.10;101310.00;;;;5071839;28;20202;-79
2021/05/27 03:38:28;;;;;;;4.03;2.38;;;;;16.10;101313.00;;;;5075613;28;20293;-79
2021/05/27 03:40:56;;;;;;;3.30;2.03;;;;;16.00;101312.00;;;;5071601;28;20222;-79
2021/05/27 03:43:23;;;;;;;6.65;3.03;;;;;16.00;101320.00;;;;5087407;28;20190;-79
2021/05/27 03:45:49;;;;;;;7.80;3.70;;;;;16.00;101311.00;;;;5090249;28;20191;-79
2021/05/27 03:48:16;;;;;;;5.22;2.83;;;;;16.00;101316.00;;;;5070604;28;20199;-79
2021/05/27 03:50:43;;;;;;;4.57;2.20;;;;;16.00;101318.00;;;;5070479;28;20657;-78
2021/05/27 03:53:10;;;;;;;6.68;2.80;;;;;16.00;101316.00;;;;5071165;28;20202;-78
2021/05/27 03:55:37;;;;;;;4.43;2.55;;;;;16.00;101316.00;;;;5075351;28;20203;-79
2021/05/27 04:00:41;;;;;;;4.18;2.20;;;;;16.00;101319.00;;;;5071427;28;20198;-79
2021/05/27 04:00:52;;;;;;;6.65;2.63;;;;;16.00;101320.00;;;;5070697;28;20219;-79
2021/05/27 04:03:19;;;;;;;7.47;2.85;;;;;16.00;101323.00;;;;5070936;28;20183;-79
2021/05/27 04:08:31;;;;;;;4.18;2.30;;;;;16.00;101322.00;;;;5070980;28;20248;-79
2021/05/27 04:10:57;;;;;;;4.45;2.42;;;;;16.00;101323.00;;;;5080213;28;20606;-79
2021/05/27 04:13:25;;;;;;;3.28;2.55;;;;;16.00;101322.00;;;;5071466;28;20191;-81
2021/05/27 04:15:52;;;;;;;5.45;2.70;;;;;16.00;101323.00;;;;5078144;28;20203;-78
2021/05/27 04:18:22;;;;;;;6.10;2.40;;;;;16.00;101327.00;;;;5077413;28;20619;-78
2021/05/27 04:20:51;;;;;;;7.97;2.15;;;;;16.00;101329.00;;;;5077340;28;20233;-78
2021/05/27 04:23:33;;;;;;;6.75;2.70;;;;;16.00;101325.00;;;;5090489;28;20204;-78
2021/05/27 04:26:00;;;;;;;3.35;1.73;;;;;16.00;101330.00;;;;5090553;28;20194;-78
2021/05/27 04:28:27;;;;;;;6.05;2.22;;;;;16.00;101330.00;;;;5071292;28;20206;-78
2021/05/27 04:31:10;;;;;;;7.43;2.22;;;;;16.00;101328.00;;;;5079041;28;20675;-79
2021/05/27 04:33:37;;;;;;;3.30;2.05;;;;;16.00;101326.00;;;;5070903;28;20195;-79
2021/05/27 04:36:04;;;;;;;8.68;2.72;;;;;16.00;101334.00;;;;5070674;28;20191;-78
2021/05/27 04:38:31;;;;;;;4.35;2.42;;;;;16.00;101331.00;;;;5082453;28;20558;-79
2021/05/27 04:40:58;;;;;;;8.93;2.65;;;;;16.00;101325.00;;;;5081935;28;20219;-78
2021/05/27 04:43:25;;;;;;;5.90;2.47;;;;;16.00;101336.00;;;;5073184;28;20202;-79
2021/05/27 04:45:53;;;;;;;6.15;2.80;;;;;16.00;101321.00;;;;5086556;28;20728;-79
2021/05/27 04:48:20;;;;;;;8.73;3.47;;;;;16.10;101338.00;;;;5097740;28;20244;-79
2021/05/27 04:50:49;;;;;;;5.57;2.13;;;;;16.10;101331.00;;;;5087729;28;20194;-79
2021/05/27 04:53:17;;;;;;;3.97;2.13;;;;;16.10;101338.00;;;;5090625;28;20625;-79
2021/05/27 04:55:44;;;;;;;5.20;2.00;;;;;16.10;101338.00;;;;5091832;28;20291;-79
2021/05/27 04:58:11;;;;;;;5.75;2.53;;;;;16.10;101344.00;;;;5079418;28;20203;-79
2021/05/27 05:00:38;;;;;;;3.67;2.25;;;;;16.10;101339.00;;;;5073021;28;20361;-79
2021/05/27 05:03:07;;;;;;;6.57;2.53;;;;;16.10;101350.00;;;;5090844;28;20668;-79
2021/05/27 05:05:35;;;;;;;6.97;2.80;;;;;16.10;101348.00;;;;5097060;28;20206;-79
2021/05/27 05:08:03;;;;;;;3.78;2.40;;;;;16.10;101351.00;;;;5081689;28;20199;-78
2021/05/27 05:10:31;;;;;;;4.53;2.90;;;;;16.10;101343.00;;;;5084175;28;20632;-79
2021/05/27 05:12:57;;;;;;;5.20;1.98;;;;;16.10;101357.00;;;;5106713;28;20596;-79
2021/05/27 05:15:26;;;;;;;6.15;2.83;;;;;16.10;101360.00;;;;5088617;28;20202;-79
2021/05/27 05:17:54;;;;;;;4.10;2.53;;;;;16.10;101356.00;;;;5090195;28;20251;-79
2021/05/27 05:20:24;;;;;;;8.05;2.38;;;;;16.10;101363.00;;;;5081150;28;20191;-78
2021/05/27 05:22:52;;;;;;;5.85;2.72;;;;;16.10;101359.00;;;;5080376;28;20209;-79
2021/05/27 05:25:20;;;;;;;6.57;2.42;;;;;16.10;101357.00;;;;5085118;28;20262;-79
2021/05/27 05:27:47;;;;;;;5.03;2.28;;;;;16.10;101364.00;;;;5080923;28;20199;-79
2021/05/27 05:30:15;;;;;;;4.15;2.05;;;;;16.10;101365.00;;;;5086550;28;20241;-79
2021/05/27 05:32:43;;;;;;;5.15;2.40;;;;;16.10;101365.00;;;;5082730;28;20191;-79
2021/05/27 05:35:12;;;;;;;4.00;2.25;;;;;16.10;101369.00;;;;5073076;28;20205;-78
2021/05/27 05:37:40;;;;;;;4.38;2.10;;;;;16.10;101364.00;;;;5089962;28;20197;-78
2021/05/27 05:40:09;;;;;;;5.13;2.25;;;;;16.10;101365.00;;;;5094666;28;20255;-78
2021/05/27 05:42:36;;;;;;;4.53;2.53;;;;;16.10;101369.00;;;;5093838;28;20224;-77
2021/05/27 05:45:04;;;;;;;4.38;2.22;;;;;16.10;101362.00;;;;5094531;28;20198;-78
2021/05/27 05:47:31;;;;;;;6.70;3.50;;;;;16.20;101370.00;;;;5085391;28;20202;-77
2021/05/27 05:49:58;;;;;;;5.95;2.88;;;;;16.20;101366.00;;;;5089626;28;20297;-77
2021/05/27 05:52:24;;;;;;;7.25;2.25;;;;;16.20;101364.00;;;;5088943;28;20246;-77
2021/05/27 05:54:52;;;;;;;4.82;2.13;;;;;16.20;101369.00;;;;5098578;28;20209;-78
2021/05/27 05:57:19;;;;;;;4.82;2.53;;;;;16.20;101368.00;;;;5095083;28;20240;-78
2021/05/27 05:59:46;;;;;;;4.65;2.30;;;;;16.20;101375.00;;;;5097882;28;20193;-77
2021/05/27 06:02:13;;;;;;;7.00;2.50;;;;;16.20;101369.00;;;;5094265;28;20734;-78
2021/05/27 06:04:39;;;;;;;3.55;2.05;;;;;16.20;101375.00;;;;5080144;28;20653;-81
2021/05/27 06:07:06;;;;;;;3.90;1.95;;;;;16.20;101386.00;;;;5078404;28;20206;-79
2021/05/27 06:09:33;;;;;;;6.57;2.42;;;;;16.20;101384.00;;;;5068455;28;20245;-79
2021/05/27 06:12:01;;;;;;;4.07;2.13;;;;;16.20;101390.00;;;;5073622;28;20576;-79
2021/05/27 06:14:28;;;;;;;3.40;2.05;;;;;16.20;101391.00;;;;5069493;28;20206;-81
2021/05/27 06:16:56;;;;;;;5.20;2.15;;;;;16.20;101391.00;;;;5068014;28;20214;-81
2021/05/27 06:19:23;;;;;;;4.10;1.58;;;;;16.20;101395.00;;;;5068636;28;20194;-81
2021/05/27 06:21:50;;;;;;;7.32;2.10;;;;;16.20;101399.00;;;;5077325;28;20631;-80
2021/05/27 06:24:17;;;;;;;4.57;2.15;;;;;16.20;101395.00;;;;5088740;28;20191;-82
2021/05/27 06:26:44;;;;;;;4.40;2.33;;;;;16.20;101401.00;;;;5086298;28;20654;-84
2021/05/27 06:29:12;;;;;;;8.68;2.30;;;;;16.20;101404.00;;;;5074962;28;20525;-81
2021/05/27 06:31:39;;;;;;;5.60;2.65;;;;;16.20;101405.00;;;;5076182;28;20219;-82
2021/05/27 06:34:06;;;;;;;9.05;2.40;;;;;16.20;101401.00;;;;5067954;28;20191;-80
2021/05/27 06:36:32;;;;;;;3.60;1.58;;;;;16.20;101397.00;;;;5086663;28;20237;-81
2021/05/27 06:38:59;;;;;;;6.80;2.22;;;;;16.20;101397.00;;;;5069435;28;20274;-81
2021/05/27 06:41:26;;;;;;;3.28;1.90;;;;;16.20;101407.00;;;;5068765;28;20967;-81
2021/05/27 06:43:53;;;;;;;5.90;2.22;;;;;16.20;101404.00;;;;5069352;28;20187;-80
2021/05/27 06:46:21;;;;;;;5.72;2.00;;;;;16.20;101404.00;;;;5067734;28;20197;-79
2021/05/27 06:48:48;;;;;;;4.63;2.47;;;;;16.20;101408.00;;;;5068856;28;20211;-80
2021/05/27 06:51:15;;;;;;;4.50;2.50;;;;;16.20;101407.00;;;;5068682;28;20210;-80
2021/05/27 06:53:41;;;;;;;4.78;2.40;;;;;16.20;101412.00;;;;5071201;28;20207;-81
2021/05/27 06:56:08;;;;;;;6.50;2.45;;;;;16.20;101417.00;;;;5085345;28;20197;-82
2021/05/27 06:58:35;;;;;;;5.28;2.08;;;;;16.20;101420.00;;;;5079877;28;20206;-81
2021/05/27 07:01:02;;;;;;;4.30;2.15;;;;;16.30;101420.00;;;;5081678;28;20214;-82
2021/05/27 07:03:30;;;;;;;2.88;2.05;;;;;16.30;101420.00;;;;5082404;28;20213;-82
2021/05/27 07:05:58;;;;;;;4.35;2.35;;;;;16.30;101420.00;;;;5075874;28;20190;-81
2021/05/27 07:08:26;;;;;;;4.45;1.92;;;;;16.30;101430.00;;;;5074578;28;21026;-81
2021/05/27 07:10:52;;;;;;;6.35;2.15;;;;;16.30;101432.00;;;;5088709;28;20222;-81
2021/05/27 07:13:19;;;;;;;4.53;2.13;;;;;16.30;101434.00;;;;5075918;28;20244;-82
2021/05/27 07:15:46;;;;;;;4.15;2.63;;;;;16.30;101437.00;;;;5077789;28;20244;-80
2021/05/27 07:18:12;;;;;;;5.00;2.10;;;;;16.30;101438.00;;;;5070203;28;20191;-81
2021/05/27 07:20:42;;;;;;;6.32;2.00;;;;;16.30;101440.00;;;;5088786;28;20206;-82
2021/05/27 07:23:10;;;;;;;4.15;1.98;;;;;16.30;101442.00;;;;5084141;28;20190;-80
2021/05/27 07:25:37;;;;;;;4.10;1.92;;;;;16.30;101442.00;;;;5068800;28;20652;-82
2021/05/27 07:28:04;;;;;;;4.50;1.98;;;;;16.30;101444.00;;;;5074001;28;20194;-82
2021/05/27 07:30:32;;;;;;;3.83;2.10;;;;;16.30;101439.00;;;;5073463;28;20223;-81
2021/05/27 07:32:59;;;;;;;5.25;2.15;;;;;16.40;101439.00;;;;5081153;28;20210;-80
2021/05/27 07:35:27;;;;;;;6.47;2.13;;;;;16.40;101443.00;;;;5069974;28;20183;-82
2021/05/27 07:37:55;;;;;;;5.40;2.28;;;;;16.40;101448.00;;;;5076311;28;20195;-81
2021/05/27 07:40:22;;;;;;;4.38;2.10;;;;;16.40;101444.00;;;;5067911;28;20226;-81
2021/05/27 07:42:49;;;;;;;4.10;2.20;;;;;16.50;101448.00;;;;5067973;28;20234;-82
2021/05/27 07:45:16;;;;;;;5.32;2.28;;;;;16.50;101453.00;;;;5068421;28;20202;-83
2021/05/27 07:47:43;;;;;;;5.00;2.80;;;;;16.50;101452.00;;;;5074937;28;20199;-79
2021/05/27 07:50:11;;;;;;;4.10;1.67;;;;;16.50;101451.00;;;;5083990;28;20194;-80
2021/05/27 07:52:38;;;;;;;2.47;2.08;;;;;16.50;101452.00;;;;5079826;28;20203;-81
2021/05/27 07:55:07;;;;;;;6.00;2.33;;;;;16.60;101452.00;;;;5084335;28;20202;-82
2021/05/27 07:57:33;;;;;;;4.15;2.25;;;;;16.60;101461.00;;;;5074386;28;20226;-82
2021/05/27 08:00:00;;;;;;;5.82;2.20;;;;;16.70;101458.00;;;;5071395;28;20203;-81
2021/05/27 08:02:27;;;;;;;3.20;2.42;;;;;16.70;101453.00;;;;5069393;28;20494;-83
2021/05/27 08:04:53;;;;;;;4.28;2.00;;;;;16.70;101461.00;;;;5087573;28;20199;-82
2021/05/27 08:07:20;;;;;;;4.28;2.38;;;;;16.70;101469.00;;;;5074887;28;20218;-81
2021/05/27 08:09:47;;;;;;;5.55;2.63;;;;;16.70;101465.00;;;;5067674;28;20222;-81
2021/05/27 08:12:15;;;;;;;4.82;1.95;;;;;16.70;101470.00;;;;5073695;28;20684;-82
2021/05/27 08:14:41;;;;;;;5.82;1.85;;;;;16.70;101477.00;;;;5079859;28;20201;-80
2021/05/27 08:17:08;;;;;;;6.10;2.75;;;;;16.70;101475.00;;;;5091409;28;20570;-80
2021/05/27 08:19:35;;;;;;;3.55;2.10;;;;;16.70;101469.00;;;;5079443;28;20264;-81
2021/05/27 08:22:03;;;;;;;5.50;2.38;;;;;16.70;101479.00;;;;5075542;28;20237;-81
2021/05/27 08:24:30;;;;;;;5.82;2.67;;;;;16.70;101491.00;;;;5085851;28;20202;-81
2021/05/27 08:26:57;;;;;;;3.08;2.42;;;;;16.60;101483.00;;;;5090671;28;20230;-82
2021/05/27 08:29:25;;;;;;;4.82;2.10;;;;;16.60;101485.00;;;;5071295;28;20954;-81
2021/05/27 08:31:52;;;;;;;4.93;2.55;;;;;16.70;101489.00;;;;5071623;28;20218;-81
2021/05/27 08:34:19;;;;;;;4.63;2.00;;;;;16.70;101496.00;;;;5077551;28;20218;-81
2021/05/27 08:36:46;;;;;;;7.25;2.00;;;;;16.70;101492.00;;;;5075367;28;20222;-83
2021/05/27 08:39:15;;;;;;;3.42;2.03;;;;;16.70;101493.00;;;;5071386;28;20207;-80
2021/05/27 08:41:42;;;;;;;6.05;2.17;;;;;16.70;101494.00;;;;5074741;28;20360;-80
2021/05/27 08:44:10;;;;;;;4.97;2.53;;;;;16.70;101499.00;;;;5081040;28;20201;-81
2021/05/27 08:46:38;;;;;;;5.90;1.98;;;;;16.60;101494.00;;;;5075984;28;20221;-81
2021/05/27 08:49:06;;;;;;;4.28;2.13;;;;;16.70;101494.00;;;;5080772;28;20199;-82
2021/05/27 08:51:34;;;;;;;3.55;1.85;;;;;16.70;101505.00;;;;5076506;28;20198;-81
2021/05/27 08:54:01;;;;;;;4.25;1.92;;;;;16.70;101505.00;;;;5081828;28;20194;-81
2021/05/27 08:56:28;;;;;;;3.58;1.77;;;;;16.70;101515.00;;;;5073466;28;20201;-82
2021/05/27 08:58:55;;;;;;;4.85;1.95;;;;;16.70;101513.00;;;;5078127;28;20195;-82
2021/05/27 09:01:23;;;;;;;5.82;1.60;;;;;16.70;101519.00;;;;5078627;28;20222;-81
2021/05/27 09:03:54;;;;;;;4.93;1.63;;;;;16.70;101518.00;;;;5086969;28;20221;-82
2021/05/27 09:06:21;;;;;;;4.82;2.00;;;;;16.70;101521.00;;;;5086289;28;20209;-82
2021/05/27 09:08:48;;;;;;;4.32;1.98;;;;;16.80;101514.00;;;;5079261;28;20228;-82
2021/05/27 09:11:18;;;;;;;3.55;1.90;;;;;16.80;101518.00;;;;5076491;28;20194;-81
2021/05/27 09:13:54;;;;;;;3.85;2.35;;;;;16.90;101522.00;;;;5079507;28;20197;-80
2021/05/27 09:16:21;;;;;;;7.22;2.30;;;;;17.00;101523.00;;;;5089934;28;20197;-82
2021/05/27 09:18:48;;;;;;;8.40;2.85;;;;;17.00;101521.00;;;;5077545;28;20241;-81
2021/05/27 09:21:17;;;;;;;8.02;2.65;;;;;17.00;101521.00;;;;5082678;28;20210;-82
2021/05/27 09:23:47;;;;;;;8.07;2.40;;;;;17.00;101531.00;;;;5081804;28;20579;-81
2021/05/27 09:26:15;;;;;;;4.07;1.95;;;;;17.00;101538.00;;;;5090226;28;20202;-82
2021/05/27 09:28:44;;;;;;;7.00;2.05;;;;;17.10;101534.00;;;;5069951;28;20206;-82
2021/05/27 09:31:13;;;;;;;5.07;2.28;;;;;17.00;101533.00;;;;5084136;28;20205;-82
2021/05/27 09:33:41;;;;;;;4.90;2.35;;;;;17.00;101543.00;;;;5089357;28;20208;-82
2021/05/27 09:36:10;;;;;;;4.30;2.33;;;;;17.00;101540.00;;;;5089755;28;20672;-81
2021/05/27 09:38:38;;;;;;;5.28;2.40;;;;;17.00;101540.00;;;;5085961;28;20195;-82
2021/05/27 09:41:16;;;;;;;5.20;2.03;;;;;17.00;101549.00;;;;5089758;28;20205;-83
2021/05/27 09:43:46;;;;;;;2.60;1.58;;;;;17.10;101547.00;;;;5089691;28;20251;-82
2021/05/27 09:46:13;;;;;;;8.15;2.55;;;;;17.10;101561.00;;;;5083567;28;20724;-82
2021/05/27 09:48:40;;;;;;;4.25;2.20;;;;;17.10;101557.00;;;;5086487;28;20664;-82
2021/05/27 09:51:07;;;;;;;5.60;2.50;;;;;17.10;101558.00;;;;5089741;28;20194;-83
2021/05/27 09:53:35;;;;;;;6.25;2.50;;;;;17.10;101560.00;;;;5089243;28;20234;-82
2021/05/27 09:56:04;;;;;;;5.40;2.65;;;;;17.10;101561.00;;;;5089039;28;20198;-83
2021/05/27 09:58:31;;;;;;;5.28;2.53;;;;;17.10;101567.00;;;;5074906;28;20607;-81
2021/05/27 10:00:58;;;;;;;9.77;3.22;;;;;17.10;101573.00;;;;5068736;28;20190;-84
2021/05/27 10:03:33;;;;;;;4.78;2.63;;;;;17.10;101570.00;;;;5071662;28;20210;-83
2021/05/27 10:06:03;;;;;;;4.25;2.03;;;;;17.10;101565.00;;;;5069061;28;20660;-80
2021/05/27 10:08:46;;;;;;;6.45;2.17;;;;;17.10;101570.00;;;;5070349;28;20213;-82
2021/05/27 10:11:14;;;;;;;4.43;2.10;;;;;17.20;101573.00;;;;5089395;28;20237;-81
2021/05/27 10:13:42;;;;;;;5.75;2.20;;;;;17.20;101579.00;;;;5089232;28;20684;-82
2021/05/27 10:16:12;;;;;;;4.57;2.10;;;;;17.20;101580.00;;;;5088915;28;20725;-84
2021/05/27 10:18:41;;;;;;;5.97;2.03;;;;;17.20;101578.00;;;;5089123;28;20198;-84
2021/05/27 10:21:08;;;;;;;6.03;2.65;;;;;17.20;101584.00;;;;5069127;28;20281;-84
2021/05/27 10:23:35;;;;;;;3.75;2.45;;;;;17.20;101590.00;;;;5069333;28;20213;-79
2021/05/27 10:26:02;;;;;;;4.03;2.15;;;;;17.20;101593.00;;;;5076094;28;20198;-78
2021/05/27 10:28:30;;;;;;;4.15;2.45;;;;;17.10;101587.00;;;;5078968;28;20589;-77
2021/05/27 10:30:57;;;;;;;8.35;2.13;;;;;17.10;101593.00;;;;5068931;28;20218;-78
2021/05/27 10:33:25;;;;;;;5.00;2.50;;;;;17.10;101587.00;;;;5068090;28;20195;-79
2021/05/27 10:35:54;;;;;;;4.68;2.25;;;;;17.10;101595.00;;;;5079675;28;20297;-78
2021/05/27 10:38:49;;;;;;;5.22;2.10;;;;;17.00;101592.00;;;;5081051;28;20194;-79
2021/05/27 10:41:19;;;;;;;6.18;2.30;;;;;17.10;101596.00;;;;5082434;28;20214;-79
2021/05/27 10:44:11;;;;;;;4.80;2.22;;;;;16.90;101603.00;;;;5069275;28;20198;-79
2021/05/27 10:47:17;;;;;;;6.05;2.15;;;;;16.90;101605.00;;;;5072207;28;20198;-78
2021/05/27 10:50:02;;;;;;;6.20;1.88;;;;;16.90;101602.00;;;;5068554;28;20198;-79
2021/05/27 10:52:46;;;;;;;4.20;2.17;;;;;16.90;101608.00;;;;5072787;28;20203;-81
2021/05/27 10:55:54;;;;;;;4.07;2.15;;;;;16.90;101612.00;;;;5081692;28;20228;-81
2021/05/27 10:58:39;;;;;;;3.60;2.03;;;;;17.00;101625.00;;;;5082142;28;20196;-79
2021/05/27 11:01:07;;;;;;;5.40;2.40;;;;;17.00;101609.00;;;;5087703;28;20202;-79
2021/05/27 11:03:47;;;;;;;4.25;2.30;;;;;16.90;101620.00;;;;5085789;28;20205;-79
2021/05/27 11:06:28;;;;;;;5.75;2.60;;;;;17.00;101618.00;;;;5068309;28;20546;-80
2021/05/27 11:09:33;;;;;;;6.55;3.20;;;;;17.00;101628.00;;;;5073037;28;20622;-80
2021/05/27 11:12:12;;;;;;;4.88;2.88;;;;;17.00;101621.00;;;;5067642;28;20676;-78
2021/05/27 11:14:40;;;;;;;4.20;2.50;;;;;17.10;101623.00;;;;5075009;28;20551;-79
2021/05/27 11:17:24;;;;;;;3.63;2.20;;;;;17.00;101618.00;;;;5081937;28;20202;-79
2021/05/27 11:19:54;;;;;;;4.50;2.53;;;;;17.20;101629.00;;;;5070147;28;20217;-79
2021/05/27 11:22:56;;;;;;;6.63;2.38;;;;;17.10;101634.00;;;;5088498;28;20233;-79
2021/05/27 11:25:29;;;;;;;3.88;2.10;;;;;17.30;101624.00;;;;5083122;28;20580;-80
2021/05/27 11:27:57;;;;;;;5.15;2.33;;;;;17.40;101626.00;;;;5073033;28;20722;-80
2021/05/27 11:30:26;;;;;;;4.90;2.53;;;;;17.50;101630.00;;;;5068900;28;20282;-79
2021/05/27 11:32:55;;;;;;;4.72;2.38;;;;;17.60;101631.00;;;;5068105;28;20209;-78
2021/05/27 11:35:24;;;;;;;5.18;2.33;;;;;17.70;101629.00;;;;5086719;28;20909;-79
2021/05/27 11:37:52;;;;;;;4.40;2.38;;;;;17.90;101634.00;;;;5080061;28;20198;-79
2021/05/27 11:40:20;;;;;;;6.05;2.30;;;;;18.10;101626.00;;;;5079827;28;20672;-80
2021/05/27 11:42:50;;;;;;;4.90;2.38;;;;;18.20;101630.00;;;;5070891;28;20244;-80
2021/05/27 11:45:18;;;;;;;6.78;2.45;;;;;18.40;101634.00;;;;5068176;28;20237;-79
2021/05/27 11:48:13;;;;;;;5.82;2.25;;;;;18.40;101634.00;;;;5075024;28;20183;-80
2021/05/27 11:50:39;;;;;;;3.35;1.80;;;;;18.50;101633.00;;;;5071296;28;20226;-81
2021/05/27 11:53:06;;;;;;;7.75;2.47;;;;;18.50;101627.00;;;;5082856;28;20202;-80
2021/05/27 11:55:34;;;;;;;3.92;2.20;;;;;18.50;101636.00;;;;5076582;28;21109;-80
2021/05/27 11:58:01;;;;;;;6.45;2.40;;;;;18.50;101633.00;;;;5072106;28;20280;-80
2021/05/27 12:00:28;;;;;;;5.40;2.45;;;;;18.50;101633.00;;;;5084805;28;20194;-80
2021/05/27 12:02:58;;;;;;;5.72;2.67;;;;;18.50;101633.00;;;;5079977;28;20231;-80
2021/05/27 12:05:27;;;;;;;3.90;1.75;;;;;18.50;101643.00;;;;5075425;28;20199;-80
2021/05/27 12:07:59;;;;;;;5.38;2.40;;;;;18.40;101646.00;;;;5077656;28;20624;-80
2021/05/27 12:10:26;;;;;;;5.93;2.00;;;;;18.40;101658.00;;;;5083041;28;20230;-79
2021/05/27 12:12:53;;;;;;;3.95;2.25;;;;;18.40;101658.00;;;;5076024;28;20240;-80
2021/05/27 12:15:22;;;;;;;3.72;1.92;;;;;18.40;101660.00;;;;5080445;28;20198;-79
2021/05/27 12:17:50;;;;;;;2.85;1.92;;;;;18.40;101658.00;;;;5074916;28;20195;-79
2021/05/27 12:20:19;;;;;;;3.88;2.10;;;;;18.30;101659.00;;;;5079639;28;20701;-80